Time;durP1;ratioP1;P1;durP2;ratioP2;P2;SDS_P1;SDS_P2;PMS_P1;PMS_P2;Temp;Humidity;BMP_temperature;BMP_pressure;BME280_temperature;BME280_humidity;BME280_pressure;Samples;Min_cycle;Max_cycle;Signal;HPM_P1;HPM_P2
2021/07/30 00:00:15;;;;;;;7.63;2.78;;;16.60;77.00;;;;;;5002280;28;20209;-79
2021/07/30 00:02:41;;;;;;;8.27;2.97;;;16.50;77.10;;;;;;5007399;28;20036;-79
2021/07/30 00:05:07;;;;;;;8.32;3.00;;;16.50;77.40;;;;;;5008527;28;20037;-79
2021/07/30 00:07:33;;;;;;;8.43;3.03;;;16.40;77.30;;;;;;4990995;28;20025;-79
2021/07/30 00:09:58;;;;;;;5.93;3.20;;;16.40;77.80;;;;;;4993693;28;20060;-79
2021/07/30 00:12:24;;;;;;;7.72;3.15;;;16.40;77.60;;;;;;5020612;28;20029;-79
2021/07/30 00:14:49;;;;;;;5.40;3.05;;;16.50;77.60;;;;;;4998347;28;20026;-80
2021/07/30 00:17:15;;;;;;;7.65;2.88;;;16.50;77.50;;;;;;5010694;28;20018;-79
2021/07/30 00:19:40;;;;;;;7.22;3.10;;;16.50;77.60;;;;;;5009483;28;20028;-79
2021/07/30 00:22:06;;;;;;;5.97;2.78;;;16.40;77.90;;;;;;5006850;28;20032;-79
2021/07/30 00:24:31;;;;;;;6.63;2.85;;;16.30;78.00;;;;;;4992097;28;20029;-80
2021/07/30 00:26:57;;;;;;;8.82;3.25;;;16.30;78.00;;;;;;5005989;28;20026;-78
2021/07/30 00:29:23;;;;;;;14.23;3.20;;;16.40;77.90;;;;;;4995393;28;20022;-79
2021/07/30 00:31:48;;;;;;;8.80;2.63;;;16.30;78.10;;;;;;4994508;28;20040;-78
2021/07/30 00:34:14;;;;;;;6.80;3.22;;;16.40;78.00;;;;;;5001962;28;20044;-78
2021/07/30 00:36:39;;;;;;;5.80;3.13;;;16.40;78.20;;;;;;4997391;28;20037;-78
2021/07/30 00:39:05;;;;;;;9.05;3.17;;;16.30;77.80;;;;;;5001022;28;20048;-78
2021/07/30 00:41:35;;;;;;;8.95;3.20;;;16.40;77.90;;;;;;5019227;28;20034;-79
2021/07/30 00:44:01;;;;;;;7.15;3.03;;;16.40;78.10;;;;;;5001620;28;20030;-79
2021/07/30 00:46:27;;;;;;;7.78;3.30;;;16.40;78.20;;;;;;5011179;28;20527;-79
2021/07/30 00:48:53;;;;;;;8.02;3.17;;;16.40;78.10;;;;;;5007944;28;20041;-78
2021/07/30 00:51:19;;;;;;;8.65;2.97;;;16.40;78.10;;;;;;4997048;28;20370;-78
2021/07/30 00:53:44;;;;;;;7.93;2.92;;;16.40;78.20;;;;;;4996714;28;20038;-79
2021/07/30 00:56:10;;;;;;;9.43;3.28;;;16.40;78.40;;;;;;4996654;28;20224;-79
2021/07/30 00:58:35;;;;;;;6.68;3.40;;;16.30;78.30;;;;;;5009551;28;20042;-78
2021/07/30 01:01:01;;;;;;;7.43;3.08;;;16.40;78.40;;;;;;5011234;28;20068;-78
2021/07/30 01:03:28;;;;;;;4.07;2.78;;;16.40;78.50;;;;;;4979639;28;20025;-78
2021/07/30 01:05:54;;;;;;;8.70;2.97;;;16.50;78.30;;;;;;5002159;28;20079;-78
2021/07/30 01:08:20;;;;;;;4.43;2.63;;;16.50;78.40;;;;;;4996211;28;20037;-78
2021/07/30 01:10:45;;;;;;;7.20;2.88;;;16.40;78.10;;;;;;4993200;28;20052;-78
2021/07/30 01:13:11;;;;;;;6.50;3.03;;;16.40;78.30;;;;;;4992284;28;20502;-78
2021/07/30 01:15:36;;;;;;;7.63;3.10;;;16.40;78.40;;;;;;4995738;28;20069;-77
2021/07/30 01:18:02;;;;;;;6.95;2.67;;;16.50;78.50;;;;;;4998051;28;20381;-76
2021/07/30 01:20:28;;;;;;;4.90;2.75;;;16.50;78.40;;;;;;5008093;28;20033;-77
2021/07/30 01:22:59;;;;;;;5.00;3.40;;;16.40;78.50;;;;;;5010851;28;20044;-78
2021/07/30 01:25:25;;;;;;;4.68;3.20;;;16.50;79.20;;;;;;4998298;28;20026;-77
2021/07/30 01:27:51;;;;;;;8.27;2.90;;;16.50;78.30;;;;;;4992337;28;20037;-78
2021/07/30 01:30:18;;;;;;;7.90;3.25;;;16.60;78.60;;;;;;5014052;28;20032;-76
2021/07/30 01:32:44;;;;;;;6.10;2.85;;;16.60;78.30;;;;;;4995201;28;20033;-77
2021/07/30 01:35:10;;;;;;;5.38;3.00;;;16.70;78.60;;;;;;4999616;28;20155;-77
2021/07/30 01:37:35;;;;;;;6.13;2.85;;;16.60;78.50;;;;;;4993370;28;20034;-76
2021/07/30 01:40:01;;;;;;;7.75;3.45;;;16.60;78.30;;;;;;5000920;28;20025;-77
2021/07/30 01:42:27;;;;;;;7.40;3.30;;;16.60;78.60;;;;;;5014692;28;20457;-78
2021/07/30 01:44:52;;;;;;;4.40;2.83;;;16.60;79.00;;;;;;5001102;28;20087;-77
2021/07/30 01:47:20;;;;;;;6.32;3.13;;;16.60;78.50;;;;;;5004349;28;20374;-78
2021/07/30 01:49:46;;;;;;;7.05;2.90;;;16.60;78.80;;;;;;4999315;28;20100;-77
2021/07/30 01:52:12;;;;;;;8.23;3.10;;;16.60;78.80;;;;;;5012489;28;20509;-77
2021/07/30 01:54:38;;;;;;;6.32;3.03;;;16.60;78.80;;;;;;5009625;28;20024;-77
2021/07/30 01:57:04;;;;;;;4.45;2.90;;;16.60;78.70;;;;;;5011069;28;20029;-77
2021/07/30 01:59:30;;;;;;;6.97;2.90;;;16.60;78.60;;;;;;4998585;28;20421;-77
2021/07/30 02:01:55;;;;;;;9.20;2.92;;;16.80;79.30;;;;;;4999920;28;20120;-77
2021/07/30 02:04:21;;;;;;;9.68;4.18;;;16.60;78.90;;;;;;5007467;28;20034;-77
2021/07/30 02:06:46;;;;;;;9.63;2.88;;;16.60;79.20;;;;;;4993052;28;20041;-77
2021/07/30 02:09:12;;;;;;;7.55;2.83;;;16.60;79.30;;;;;;4996176;28;20081;-78
2021/07/30 02:11:42;;;;;;;7.95;3.10;;;16.70;79.20;;;;;;4999640;28;20026;-77
2021/07/30 02:14:15;;;;;;;9.27;3.17;;;16.70;79.00;;;;;;4994500;28;20045;-78
2021/07/30 02:16:45;;;;;;;8.30;3.17;;;16.60;79.10;;;;;;5010791;28;20457;-77
2021/07/30 02:19:11;;;;;;;8.10;3.20;;;16.70;79.20;;;;;;5009303;28;20046;-78
2021/07/30 02:21:36;;;;;;;4.35;2.75;;;16.70;79.40;;;;;;5008644;28;20026;-77
2021/07/30 02:24:02;;;;;;;7.25;3.10;;;16.60;79.60;;;;;;4991523;28;20079;-76
2021/07/30 02:26:27;;;;;;;11.73;3.00;;;16.70;79.70;;;;;;4997525;28;20120;-78
2021/07/30 02:28:56;;;;;;;6.97;2.97;;;16.80;79.90;;;;;;5011426;28;20049;-77
2021/07/30 02:31:22;;;;;;;6.97;2.83;;;16.70;79.70;;;;;;4997601;28;20415;-78
2021/07/30 02:33:48;;;;;;;5.68;2.72;;;16.70;79.80;;;;;;4998170;28;20026;-78
2021/07/30 02:36:13;;;;;;;4.93;2.38;;;16.70;79.90;;;;;;5018899;28;20048;-77
2021/07/30 02:38:39;;;;;;;7.00;3.35;;;16.70;80.00;;;;;;4996176;28;20535;-77
2021/07/30 02:41:04;;;;;;;7.15;3.10;;;16.70;79.80;;;;;;5022701;28;20028;-77
2021/07/30 02:43:30;;;;;;;4.85;2.70;;;16.70;80.50;;;;;;5006787;28;20485;-77
2021/07/30 02:45:55;;;;;;;8.60;3.38;;;16.70;80.30;;;;;;4996140;28;20025;-77
2021/07/30 02:48:21;;;;;;;6.97;2.80;;;16.60;80.30;;;;;;4995488;28;20037;-77
2021/07/30 02:50:48;;;;;;;7.07;2.78;;;16.60;80.40;;;;;;4998609;28;20113;-77
2021/07/30 02:53:14;;;;;;;7.20;3.15;;;16.60;80.50;;;;;;5007394;28;20128;-77
2021/07/30 02:55:40;;;;;;;8.68;3.05;;;16.50;81.40;;;;;;4997302;28;20519;-78
2021/07/30 02:58:05;;;;;;;6.18;2.40;;;16.40;80.90;;;;;;4992262;28;20037;-78
2021/07/30 03:00:31;;;;;;;7.22;3.72;;;16.40;81.20;;;;;;5002469;28;20029;-78
2021/07/30 03:02:57;;;;;;;7.78;3.15;;;16.50;81.00;;;;;;5009648;28;20079;-78
2021/07/30 03:05:22;;;;;;;13.07;3.95;;;16.30;80.70;;;;;;5009564;28;20100;-77
2021/07/30 03:07:48;;;;;;;9.38;3.95;;;16.50;81.40;;;;;;4988609;28;20025;-78
2021/07/30 03:10:13;;;;;;;8.88;2.75;;;16.30;82.60;;;;;;5010793;28;20029;-77
2021/07/30 03:12:39;;;;;;;15.13;4.10;;;16.20;81.60;;;;;;4995851;28;20428;-78
2021/07/30 03:15:05;;;;;;;5.03;3.22;;;16.10;81.50;;;;;;5021605;28;20056;-78
2021/07/30 03:17:30;;;;;;;8.98;3.38;;;16.10;82.10;;;;;;5011494;28;20033;-77
2021/07/30 03:19:56;;;;;;;10.77;4.43;;;15.90;81.70;;;;;;4999019;28;20068;-78
2021/07/30 03:22:21;;;;;;;9.60;4.03;;;15.90;82.90;;;;;;5005948;28;20025;-78
2021/07/30 03:24:47;;;;;;;4.45;3.17;;;15.90;82.60;;;;;;4990362;28;20112;-77
2021/07/30 03:27:13;;;;;;;6.70;3.17;;;15.80;82.80;;;;;;5016917;28;20038;-78
2021/07/30 03:29:38;;;;;;;6.95;3.05;;;15.70;81.80;;;;;;4993410;28;20160;-78
2021/07/30 03:32:05;;;;;;;11.48;3.92;;;15.60;82.80;;;;;;4995959;28;20109;-77
2021/07/30 03:34:33;;;;;;;7.93;4.00;;;15.70;83.10;;;;;;5008773;28;20026;-78
2021/07/30 03:36:59;;;;;;;5.88;2.83;;;15.70;84.00;;;;;;4990539;28;20448;-78
2021/07/30 03:39:25;;;;;;;5.63;3.58;;;15.60;83.40;;;;;;5004160;28;20038;-78
2021/07/30 03:41:50;;;;;;;7.00;3.55;;;15.60;84.80;;;;;;4998422;28;20378;-78
2021/07/30 03:44:16;;;;;;;6.47;3.30;;;15.50;83.80;;;;;;4999421;28;20044;-78
2021/07/30 03:46:41;;;;;;;5.90;2.83;;;15.40;83.10;;;;;;5006978;28;20026;-77
2021/07/30 03:49:07;;;;;;;7.10;4.43;;;15.40;84.70;;;;;;5008257;28;20037;-78
2021/07/30 03:51:33;;;;;;;7.65;3.42;;;15.40;85.80;;;;;;4992583;28;20033;-80
2021/07/30 03:53:58;;;;;;;5.75;3.67;;;15.40;85.20;;;;;;4997260;28;20037;-78
2021/07/30 03:56:24;;;;;;;5.47;2.70;;;15.40;84.50;;;;;;4995691;28;20028;-77
2021/07/30 03:58:49;;;;;;;11.20;4.10;;;15.40;84.10;;;;;;5008257;28;20033;-78
2021/07/30 04:01:15;;;;;;;7.40;3.53;;;15.30;84.30;;;;;;5020472;28;20444;-78
2021/07/30 04:03:42;;;;;;;9.45;5.28;;;15.20;84.90;;;;;;4996676;28;20029;-77
2021/07/30 04:06:08;;;;;;;8.43;3.22;;;15.20;86.70;;;;;;5006612;28;20413;-78
2021/07/30 04:08:33;;;;;;;8.25;4.20;;;15.10;85.80;;;;;;5021635;28;20022;-79
2021/07/30 04:10:59;;;;;;;6.78;3.58;;;15.10;85.20;;;;;;5000934;28;20041;-77
2021/07/30 04:13:25;;;;;;;6.55;3.53;;;15.00;85.60;;;;;;4994298;28;20124;-78
2021/07/30 04:15:50;;;;;;;12.93;4.22;;;15.10;85.10;;;;;;4994781;28;20413;-78
2021/07/30 04:18:16;;;;;;;8.00;3.85;;;15.00;87.00;;;;;;5006591;28;20068;-78
2021/07/30 04:20:42;;;;;;;6.82;3.35;;;15.00;86.00;;;;;;4995711;28;20123;-78
2021/07/30 04:23:07;;;;;;;11.32;4.15;;;15.00;87.10;;;;;;4993069;28;20041;-79
2021/07/30 04:25:33;;;;;;;6.32;3.40;;;15.00;88.50;;;;;;5012872;28;20033;-78
2021/07/30 04:27:58;;;;;;;12.93;4.00;;;15.00;87.70;;;;;;4999936;28;20152;-78
2021/07/30 04:30:24;;;;;;;8.18;3.50;;;14.90;87.10;;;;;;4999663;28;20072;-79
2021/07/30 04:32:50;;;;;;;10.93;4.10;;;14.90;87.40;;;;;;4997286;28;20030;-79
2021/07/30 04:35:16;;;;;;;8.65;4.13;;;14.90;87.60;;;;;;5012252;28;20045;-78
2021/07/30 04:37:41;;;;;;;6.72;3.10;;;14.90;87.50;;;;;;5015111;28;20044;-78
2021/07/30 04:40:07;;;;;;;6.22;4.03;;;15.00;87.50;;;;;;4998565;28;20034;-78
2021/07/30 04:42:33;;;;;;;11.65;3.55;;;15.00;88.80;;;;;;5020798;28;20511;-78
2021/07/30 04:44:59;;;;;;;9.30;4.03;;;15.10;87.70;;;;;;5001057;28;20366;-78
2021/07/30 04:47:25;;;;;;;12.88;4.45;;;15.10;88.60;;;;;;4997927;28;20499;-79
2021/07/30 04:49:50;;;;;;;8.70;4.55;;;15.20;88.70;;;;;;5010588;28;20108;-78
2021/07/30 04:52:16;;;;;;;9.70;4.25;;;15.10;87.80;;;;;;5011717;28;20073;-78
2021/07/30 04:54:41;;;;;;;4.63;3.17;;;15.20;90.40;;;;;;5011944;28;20056;-78
2021/07/30 04:57:10;;;;;;;10.52;3.55;;;15.20;87.70;;;;;;4992901;28;20481;-79
2021/07/30 04:59:36;;;;;;;7.90;3.65;;;15.30;87.60;;;;;;5026611;28;20030;-79
2021/07/30 05:02:02;;;;;;;6.32;3.15;;;15.30;87.60;;;;;;5008700;28;20047;-78
2021/07/30 05:04:28;;;;;;;7.68;3.50;;;15.30;88.70;;;;;;5011336;28;20037;-78
2021/07/30 05:06:53;;;;;;;8.82;4.00;;;15.40;87.90;;;;;;4997898;28;20029;-78
2021/07/30 05:09:19;;;;;;;9.63;4.10;;;15.40;88.70;;;;;;4997666;28;20033;-79
2021/07/30 05:11:44;;;;;;;8.77;3.47;;;15.30;89.40;;;;;;5006409;28;20496;-78
2021/07/30 05:14:10;;;;;;;9.00;4.38;;;15.40;88.20;;;;;;4995099;28;20037;-79
2021/07/30 05:16:35;;;;;;;10.13;4.10;;;15.50;88.10;;;;;;5006949;28;20045;-79
2021/07/30 05:19:01;;;;;;;5.30;3.28;;;15.50;89.40;;;;;;5014887;28;20033;-79
2021/07/30 05:21:27;;;;;;;10.02;4.25;;;15.50;87.70;;;;;;5012602;28;20120;-78
2021/07/30 05:23:52;;;;;;;7.70;3.83;;;15.60;88.10;;;;;;4995139;28;20125;-78
2021/07/30 05:26:18;;;;;;;5.45;3.22;;;15.60;87.80;;;;;;4993039;28;20026;-79
2021/07/30 05:28:43;;;;;;;6.75;3.55;;;15.80;87.00;;;;;;5000061;28;20033;-79
2021/07/30 05:31:16;;;;;;;11.52;4.50;;;15.80;86.70;;;;;;4994035;28;20037;-78
2021/07/30 05:33:41;;;;;;;10.23;3.97;;;15.90;89.50;;;;;;5026942;28;20052;-79
2021/07/30 05:36:07;;;;;;;6.20;3.60;;;16.00;88.30;;;;;;4998176;28;20041;-79
2021/07/30 05:38:33;;;;;;;9.30;3.97;;;16.10;86.80;;;;;;4979927;28;20038;-80
2021/07/30 05:40:58;;;;;;;6.75;3.65;;;16.30;88.00;;;;;;4990357;28;20497;-78
2021/07/30 05:43:24;;;;;;;7.03;3.17;;;16.30;86.00;;;;;;4992336;28;20037;-79
2021/07/30 05:45:50;;;;;;;6.30;3.35;;;16.40;86.60;;;;;;5012799;28;20056;-79
2021/07/30 05:48:15;;;;;;;6.75;3.00;;;16.50;85.90;;;;;;4988443;28;20367;-78
2021/07/30 05:50:41;;;;;;;6.93;3.50;;;16.60;86.20;;;;;;4999661;28;20037;-78
2021/07/30 05:53:07;;;;;;;6.55;4.00;;;16.60;86.40;;;;;;4996795;28;20455;-79
2021/07/30 05:55:33;;;;;;;4.78;3.35;;;16.70;86.00;;;;;;4999746;28;20381;-80
2021/07/30 05:58:04;;;;;;;6.50;2.90;;;16.90;85.00;;;;;;4992292;28;20037;-79
2021/07/30 06:00:31;;;;;;;4.65;2.85;;;17.00;84.90;;;;;;4998077;28;20081;-79
2021/07/30 06:02:56;;;;;;;5.68;2.47;;;17.20;85.60;;;;;;4996419;28;20036;-79
2021/07/30 06:05:36;;;;;;;4.00;2.70;;;17.20;84.10;;;;;;5002561;28;20431;-79
2021/07/30 06:08:08;;;;;;;9.90;3.60;;;17.30;83.70;;;;;;5016475;28;20389;-78
2021/07/30 06:10:38;;;;;;;5.25;2.88;;;17.50;84.20;;;;;;5007265;28;20473;-78
2021/07/30 06:13:03;;;;;;;6.82;3.35;;;17.50;84.30;;;;;;4994218;28;20473;-78
2021/07/30 06:15:29;;;;;;;5.22;2.88;;;17.60;83.70;;;;;;4997124;28;20046;-79
2021/07/30 06:17:54;;;;;;;4.95;3.10;;;17.70;83.50;;;;;;4997865;28;20057;-80
2021/07/30 06:20:20;;;;;;;7.93;2.90;;;17.90;84.00;;;;;;4999887;28;20485;-78
2021/07/30 06:22:46;;;;;;;5.88;2.53;;;18.20;83.90;;;;;;5010612;28;20069;-78
2021/07/30 06:25:11;;;;;;;6.65;2.67;;;18.40;83.80;;;;;;5001135;28;20036;-80
2021/07/30 06:27:37;;;;;;;7.75;3.08;;;18.50;82.30;;;;;;5000100;28;20029;-79
2021/07/30 06:30:03;;;;;;;6.68;3.30;;;18.70;82.30;;;;;;4993871;28;20550;-78
2021/07/30 06:32:29;;;;;;;5.75;2.60;;;18.70;81.70;;;;;;5005686;28;20103;-78
2021/07/30 06:34:54;;;;;;;6.95;3.15;;;18.90;81.60;;;;;;5008374;28;20108;-78
2021/07/30 06:37:20;;;;;;;5.55;2.80;;;19.10;81.40;;;;;;5019221;28;20025;-80
2021/07/30 06:39:46;;;;;;;5.70;2.80;;;19.00;81.30;;;;;;5018047;28;20496;-79
2021/07/30 06:42:11;;;;;;;3.60;2.70;;;19.50;80.60;;;;;;4998961;28;20026;-79
2021/07/30 06:44:37;;;;;;;6.43;2.55;;;19.60;79.80;;;;;;5008561;28;20030;-79
2021/07/30 06:47:03;;;;;;;6.45;2.58;;;19.80;80.10;;;;;;4991687;28;20388;-79
2021/07/30 06:49:29;;;;;;;3.88;2.55;;;19.60;79.00;;;;;;4997387;28;20374;-80
2021/07/30 06:51:55;;;;;;;8.50;2.33;;;19.70;78.20;;;;;;4997803;28;20017;-79
2021/07/30 06:54:21;;;;;;;4.20;2.15;;;19.60;78.60;;;;;;5007973;28;20026;-79
2021/07/30 06:56:46;;;;;;;3.20;2.35;;;19.60;78.70;;;;;;4992410;28;20482;-80
2021/07/30 06:59:12;;;;;;;7.57;2.10;;;20.00;78.00;;;;;;4995791;28;20104;-80
2021/07/30 07:01:38;;;;;;;5.13;2.42;;;20.00;77.20;;;;;;5001233;28;20034;-79
2021/07/30 07:04:04;;;;;;;6.50;3.50;;;20.00;77.70;;;;;;4998079;28;20035;-79
2021/07/30 07:06:30;;;;;;;6.95;2.33;;;20.00;77.90;;;;;;4998582;28;20116;-79
2021/07/30 07:08:56;;;;;;;4.60;1.98;;;20.50;76.40;;;;;;4994875;28;20041;-80
2021/07/30 07:11:22;;;;;;;6.35;2.13;;;20.80;76.70;;;;;;5028127;28;20030;-80
2021/07/30 07:13:47;;;;;;;8.00;2.40;;;20.80;77.40;;;;;;4998512;28;20033;-80
2021/07/30 07:16:17;;;;;;;8.15;3.10;;;20.80;75.10;;;;;;5005999;28;20047;-79
2021/07/30 07:18:42;;;;;;;11.10;2.47;;;20.80;75.80;;;;;;4993469;28;20456;-80
2021/07/30 07:21:09;;;;;;;9.45;2.55;;;20.90;75.00;;;;;;4999427;28;20037;-79
2021/07/30 07:23:35;;;;;;;5.75;2.20;;;21.00;75.00;;;;;;5006882;28;20434;-81
2021/07/30 07:26:01;;;;;;;8.85;2.42;;;20.90;75.60;;;;;;4999547;28;20132;-80
2021/07/30 07:28:27;;;;;;;2.58;1.95;;;21.40;74.10;;;;;;5001274;28;20052;-80
2021/07/30 07:30:53;;;;;;;2.13;1.77;;;21.80;73.90;;;;;;4996169;28;20029;-80
2021/07/30 07:33:19;;;;;;;5.20;1.83;;;21.80;73.70;;;;;;5010144;28;20136;-79
2021/07/30 07:35:44;;;;;;;6.03;2.20;;;21.80;73.40;;;;;;4994388;28;20128;-80
2021/07/30 07:38:11;;;;;;;5.40;2.22;;;22.20;76.00;;;;;;4996553;28;20060;-81
2021/07/30 07:40:36;;;;;;;4.25;2.08;;;22.40;75.00;;;;;;4995203;28;20036;-81
2021/07/30 07:43:02;;;;;;;5.30;1.98;;;22.90;72.10;;;;;;5011229;28;20053;-81
2021/07/30 07:45:28;;;;;;;6.45;2.17;;;22.80;71.50;;;;;;5011058;28;20030;-80
2021/07/30 07:47:54;;;;;;;4.32;2.50;;;22.80;70.50;;;;;;5000027;28;20555;-80
2021/07/30 07:50:20;;;;;;;4.82;2.10;;;22.90;69.80;;;;;;5001846;28;20030;-80
2021/07/30 07:52:46;;;;;;;5.93;2.30;;;23.20;76.20;;;;;;5014785;28;20516;-81
2021/07/30 07:55:12;;;;;;;5.95;1.98;;;23.60;70.10;;;;;;4998233;28;20112;-81
2021/07/30 07:57:41;;;;;;;5.65;2.20;;;23.40;69.60;;;;;;5011209;28;20049;-81
2021/07/30 08:00:09;;;;;;;4.28;2.22;;;23.50;71.50;;;;;;4986535;28;20034;-80
2021/07/30 08:02:34;;;;;;;6.43;2.20;;;23.60;69.10;;;;;;5029931;28;20426;-80
2021/07/30 08:05:00;;;;;;;4.88;2.00;;;24.10;67.60;;;;;;4996243;28;20045;-81
2021/07/30 08:07:25;;;;;;;2.67;1.75;;;23.90;68.30;;;;;;5008319;28;20053;-81
2021/07/30 08:09:51;;;;;;;5.38;1.92;;;24.40;68.40;;;;;;4999730;28;20402;-81
2021/07/30 08:12:17;;;;;;;4.35;2.20;;;24.40;65.70;;;;;;5016157;28;20049;-82
2021/07/30 08:14:43;;;;;;;3.40;1.75;;;24.90;68.70;;;;;;5004899;28;20034;-83
2021/07/30 08:17:08;;;;;;;5.22;1.90;;;24.80;64.30;;;;;;4989295;28;22530;-83
2021/07/30 08:19:35;;;;;;;3.58;2.13;;;24.80;65.60;;;;;;4997186;28;20493;-82
2021/07/30 08:22:01;;;;;;;3.17;1.90;;;25.00;64.10;;;;;;4994407;28;20148;-84
2021/07/30 08:24:26;;;;;;;3.92;1.88;;;24.90;63.50;;;;;;4993387;28;20042;-84
2021/07/30 08:26:52;;;;;;;3.33;2.17;;;24.90;63.70;;;;;;4997085;28;20053;-84
2021/07/30 08:29:17;;;;;;;3.80;2.20;;;25.10;63.70;;;;;;4996720;28;20030;-83
2021/07/30 08:31:44;;;;;;;3.28;2.00;;;25.40;63.90;;;;;;5011790;28;20021;-82
2021/07/30 08:34:13;;;;;;;4.70;2.03;;;25.50;61.60;;;;;;4989327;28;20061;-83
2021/07/30 08:36:39;;;;;;;3.75;2.03;;;25.50;61.70;;;;;;4994899;28;20051;-82
2021/07/30 08:39:04;;;;;;;3.08;1.77;;;25.80;63.30;;;;;;5013645;28;20033;-82
2021/07/30 08:41:30;;;;;;;2.15;1.50;;;25.60;61.80;;;;;;5003532;28;20132;-81
2021/07/30 08:43:56;;;;;;;3.65;1.48;;;25.80;60.30;;;;;;4999004;28;20067;-81
2021/07/30 08:46:25;;;;;;;3.38;1.80;;;26.00;62.10;;;;;;5010606;28;20167;-81
2021/07/30 08:48:50;;;;;;;4.47;1.70;;;26.40;65.20;;;;;;4977833;28;20126;-81
2021/07/30 08:51:17;;;;;;;6.78;2.00;;;27.10;65.40;;;;;;5003389;28;20141;-80
2021/07/30 08:53:43;;;;;;;2.47;1.60;;;27.40;65.40;;;;;;5009528;28;20044;-80
2021/07/30 08:56:08;;;;;;;5.63;1.70;;;27.40;59.80;;;;;;5007439;28;20041;-78
2021/07/30 08:58:34;;;;;;;4.30;1.60;;;26.50;59.60;;;;;;4995614;28;20076;-78
2021/07/30 09:00:59;;;;;;;4.75;1.88;;;26.20;59.00;;;;;;4995711;28;20075;-80
2021/07/30 09:03:41;;;;;;;3.00;1.50;;;26.70;58.40;;;;;;4979016;28;20473;-79
2021/07/30 09:06:10;;;;;;;5.40;2.05;;;26.80;58.20;;;;;;5006811;28;20034;-80
2021/07/30 09:08:35;;;;;;;4.47;2.10;;;27.20;61.10;;;;;;5024502;28;20114;-78
2021/07/30 09:11:01;;;;;;;4.10;1.73;;;27.80;60.20;;;;;;4990209;28;20112;-78
2021/07/30 09:13:29;;;;;;;6.13;1.67;;;27.60;57.60;;;;;;4992936;28;20056;-78
2021/07/30 09:16:05;;;;;;;4.63;1.67;;;27.50;57.20;;;;;;4997316;28;20040;-77
2021/07/30 09:18:41;;;;;;;5.60;1.60;;;27.30;56.90;;;;;;5007357;28;20057;-77
2021/07/30 09:21:35;;;;;;;7.43;1.63;;;27.50;56.40;;;;;;5007136;28;20033;-78
2021/07/30 09:24:05;;;;;;;7.82;2.05;;;28.20;58.70;;;;;;5022836;28;20034;-76
2021/07/30 09:26:46;;;;;;;7.40;2.13;;;27.70;56.60;;;;;;4976944;28;20400;-77
2021/07/30 09:29:16;;;;;;;3.97;1.88;;;27.70;56.10;;;;;;5008843;28;20037;-76
2021/07/30 09:31:44;;;;;;;2.08;1.40;;;28.40;59.10;;;;;;5008943;28;20681;-77
2021/07/30 09:34:14;;;;;;;2.80;1.63;;;28.50;57.20;;;;;;5022727;28;20477;-75
2021/07/30 09:36:41;;;;;;;4.28;2.40;;;28.20;56.40;;;;;;5010019;28;20513;-77
2021/07/30 09:39:06;;;;;;;2.45;1.67;;;27.90;56.90;;;;;;5023389;28;20413;-76
2021/07/30 09:41:32;;;;;;;5.15;1.90;;;28.10;56.30;;;;;;5006578;28;20025;-75
2021/07/30 09:44:05;;;;;;;4.80;2.03;;;28.30;57.20;;;;;;5001243;28;20028;-77
2021/07/30 09:46:31;;;;;;;4.32;2.00;;;28.20;55.80;;;;;;5005103;28;20029;-76
2021/07/30 09:48:57;;;;;;;3.25;1.60;;;28.30;56.10;;;;;;5007197;28;20052;-76
2021/07/30 09:51:22;;;;;;;5.30;2.10;;;28.20;55.40;;;;;;5007130;28;20136;-77
2021/07/30 09:53:48;;;;;;;5.82;1.65;;;28.50;55.10;;;;;;4991000;28;20133;-76
2021/07/30 09:56:16;;;;;;;1.92;1.40;;;28.20;55.30;;;;;;5016590;28;20381;-76
2021/07/30 09:58:44;;;;;;;2.83;1.60;;;28.60;54.90;;;;;;5007017;28;20501;-76
2021/07/30 10:01:15;;;;;;;5.32;1.83;;;28.50;54.50;;;;;;5021990;28;20461;-77
2021/07/30 10:03:41;;;;;;;3.88;1.70;;;28.20;55.20;;;;;;5002222;28;20030;-76
2021/07/30 10:06:07;;;;;;;2.15;1.33;;;29.00;57.40;;;;;;5004064;28;20042;-76
2021/07/30 10:08:32;;;;;;;3.90;2.00;;;29.10;53.90;;;;;;5004198;28;20029;-76
2021/07/30 10:10:58;;;;;;;5.40;2.17;;;28.90;54.90;;;;;;4993492;28;20024;-76
2021/07/30 10:13:35;;;;;;;2.22;1.88;;;29.00;54.90;;;;;;5000241;28;20025;-77
2021/07/30 10:16:02;;;;;;;2.08;1.75;;;28.70;54.30;;;;;;4993215;28;20029;-76
2021/07/30 10:18:27;;;;;;;4.28;1.95;;;28.70;54.80;;;;;;4989729;28;20080;-77
2021/07/30 10:20:56;;;;;;;2.90;1.88;;;28.60;55.10;;;;;;4995288;28;20044;-78
2021/07/30 10:23:23;;;;;;;4.78;2.75;;;28.60;54.90;;;;;;4990401;28;20035;-77
2021/07/30 10:25:53;;;;;;;3.72;1.75;;;29.00;56.60;;;;;;5010335;28;20068;-79
2021/07/30 10:28:29;;;;;;;4.78;2.55;;;29.90;55.50;;;;;;4994674;28;20567;-79
2021/07/30 10:31:07;;;;;;;4.38;2.40;;;29.90;54.40;;;;;;4992624;28;20029;-78
2021/07/30 10:33:33;;;;;;;4.65;1.85;;;30.00;57.60;;;;;;5019897;28;20050;-78
2021/07/30 10:35:59;;;;;;;3.35;1.90;;;30.10;55.90;;;;;;5008318;28;20507;-78
2021/07/30 10:38:25;;;;;;;6.20;2.05;;;30.70;56.30;;;;;;4996064;28;20045;-78
2021/07/30 10:41:08;;;;;;;3.25;2.08;;;30.80;53.70;;;;;;5014306;28;20064;-75
2021/07/30 10:44:00;;;;;;;5.47;2.20;;;30.60;54.70;;;;;;5011329;28;20520;-78
2021/07/30 10:46:26;;;;;;;3.42;1.75;;;31.10;54.80;;;;;;5014080;28;20032;-78
2021/07/30 10:48:54;;;;;;;5.20;1.65;;;30.80;52.60;;;;;;5011440;28;20034;-78
2021/07/30 10:51:23;;;;;;;8.00;2.58;;;30.30;50.90;;;;;;5003922;28;20478;-78
2021/07/30 10:53:49;;;;;;;6.72;2.13;;;30.10;53.10;;;;;;5005852;28;20029;-78
2021/07/30 10:56:18;;;;;;;4.00;2.10;;;30.00;51.00;;;;;;4988815;28;20173;-78
2021/07/30 10:58:43;;;;;;;3.50;2.20;;;30.10;51.00;;;;;;5001612;28;20048;-79
2021/07/30 11:01:19;;;;;;;3.35;2.30;;;30.10;51.40;;;;;;5022789;28;20045;-78
2021/07/30 11:03:51;;;;;;;3.13;2.22;;;31.00;50.90;;;;;;4986016;28;20492;-78
2021/07/30 11:06:17;;;;;;;1.88;1.52;;;30.60;50.30;;;;;;5015007;28;20025;-78
2021/07/30 11:09:01;;;;;;;3.53;2.40;;;31.50;53.00;;;;;;4988312;28;20044;-77
2021/07/30 11:11:49;;;;;;;4.55;1.88;;;31.50;51.60;;;;;;5016024;28;20029;-78
2021/07/30 11:14:25;;;;;;;3.42;2.25;;;31.20;50.00;;;;;;5005869;28;20109;-78
2021/07/30 11:16:55;;;;;;;3.88;2.08;;;31.80;51.60;;;;;;4976002;28;20037;-78
2021/07/30 11:19:24;;;;;;;2.45;2.00;;;32.30;50.70;;;;;;4992182;28;20533;-78
2021/07/30 11:21:50;;;;;;;2.70;2.08;;;32.30;49.20;;;;;;5001544;28;20026;-78
2021/07/30 11:24:16;;;;;;;3.05;1.83;;;32.50;50.30;;;;;;5023051;28;20084;-78
2021/07/30 11:26:41;;;;;;;4.68;1.98;;;32.40;50.30;;;;;;5000245;28;20432;-78
2021/07/30 11:29:09;;;;;;;2.95;2.33;;;32.30;49.90;;;;;;5004320;28;20543;-78
2021/07/30 11:31:50;;;;;;;3.65;2.35;;;32.00;49.80;;;;;;5005902;28;20022;-78
2021/07/30 11:34:15;;;;;;;2.30;1.85;;;32.10;49.60;;;;;;5003044;28;20349;-78
2021/07/30 11:36:46;;;;;;;2.88;2.30;;;32.10;51.00;;;;;;4995959;28;20029;-78
2021/07/30 11:39:12;;;;;;;3.90;1.83;;;32.20;49.10;;;;;;4996900;28;20030;-78
2021/07/30 11:41:46;;;;;;;3.53;2.13;;;31.80;47.80;;;;;;4990502;28;20389;-78
2021/07/30 11:44:11;;;;;;;3.50;2.40;;;31.80;50.10;;;;;;5003605;28;20060;-78
2021/07/30 11:46:37;;;;;;;3.50;1.90;;;32.20;48.50;;;;;;4990531;28;20536;-78
2021/07/30 11:49:02;;;;;;;2.75;1.80;;;32.30;48.00;;;;;;5009012;28;20037;-77
2021/07/30 11:51:28;;;;;;;4.32;1.95;;;32.30;48.00;;;;;;5024585;28;20485;-77
2021/07/30 11:53:55;;;;;;;5.82;2.33;;;32.70;47.50;;;;;;5000936;28;20124;-78
2021/07/30 11:56:21;;;;;;;3.63;2.22;;;33.20;50.70;;;;;;4993088;28;20049;-77
2021/07/30 11:58:59;;;;;;;3.50;2.13;;;33.10;47.80;;;;;;5004635;28;20523;-78
2021/07/30 12:01:25;;;;;;;5.47;2.03;;;33.30;49.20;;;;;;5029007;28;20486;-79
2021/07/30 12:04:09;;;;;;;3.25;1.95;;;33.60;48.20;;;;;;4991173;28;20040;-78
2021/07/30 12:06:48;;;;;;;3.05;2.00;;;33.00;45.90;;;;;;5008273;28;20057;-78
2021/07/30 12:09:14;;;;;;;3.72;2.30;;;32.80;46.40;;;;;;4974028;28;20353;-78
2021/07/30 12:11:47;;;;;;;4.20;2.05;;;32.60;48.00;;;;;;5007124;28;20029;-78
2021/07/30 12:14:12;;;;;;;2.70;2.05;;;32.80;46.70;;;;;;5015777;28;20051;-78
2021/07/30 12:16:40;;;;;;;1.92;1.75;;;32.90;47.00;;;;;;4987358;28;20033;-78
2021/07/30 12:19:06;;;;;;;3.42;2.30;;;32.50;48.10;;;;;;4988690;28;20133;-78
2021/07/30 12:21:31;;;;;;;2.28;1.75;;;32.80;47.50;;;;;;5005846;28;20176;-78
2021/07/30 12:24:07;;;;;;;2.10;1.88;;;32.80;47.40;;;;;;5010090;28;20471;-78
2021/07/30 12:26:35;;;;;;;3.35;2.50;;;33.10;47.30;;;;;;4995156;28;20029;-78
2021/07/30 12:29:00;;;;;;;5.30;2.17;;;33.20;47.90;;;;;;4995493;28;20025;-78
2021/07/30 12:31:26;;;;;;;2.55;2.00;;;32.60;45.50;;;;;;5011588;28;20029;-77
2021/07/30 12:34:16;;;;;;;5.00;2.00;;;32.30;45.90;;;;;;5004071;28;20026;-77
2021/07/30 12:36:42;;;;;;;3.67;2.03;;;31.80;46.60;;;;;;5036168;28;20045;-77
2021/07/30 12:39:08;;;;;;;2.40;2.08;;;31.50;47.20;;;;;;5003006;28;20588;-77
2021/07/30 12:41:34;;;;;;;1.95;1.60;;;32.10;47.50;;;;;;4992891;28;20120;-77
2021/07/30 12:44:15;;;;;;;2.83;2.10;;;32.30;46.20;;;;;;5026403;28;20508;-77